createdAt,value
2023-04-02T00:01:19.134Z,94065.47
2023-04-02T00:03:45.596Z,94068.41
2023-04-02T00:06:12.049Z,94062.97
2023-04-02T00:08:38.446Z,94057.25
2023-04-02T00:11:04.829Z,94063.28
2023-04-02T00:13:31.265Z,94061.31
2023-04-02T00:15:57.840Z,94061.00
2023-04-02T00:18:24.386Z,94063.22
2023-04-02T00:20:50.784Z,94062.34
2023-04-02T00:23:17.173Z,94061.41
2023-04-02T00:25:43.593Z,94069.72
2023-04-02T00:28:09.993Z,94062.88
2023-04-02T00:30:36.418Z,94064.97
2023-04-02T00:33:02.868Z,94056.28
2023-04-02T00:35:29.331Z,94060.88
2023-04-02T00:37:55.748Z,94061.22
2023-04-02T00:40:22.184Z,94055.16
2023-04-02T00:42:48.593Z,94067.94
2023-04-02T00:45:14.984Z,94060.91
2023-04-02T00:47:41.442Z,94060.88
2023-04-02T00:50:07.850Z,94069.88
2023-04-02T00:52:34.268Z,94062.63
2023-04-02T00:55:00.686Z,94067.44
2023-04-02T00:57:27.088Z,94069.25
2023-04-02T00:59:53.531Z,94062.53
2023-04-02T01:02:19.954Z,94063.38
2023-04-02T01:04:46.550Z,94068.78
2023-04-02T01:07:13.018Z,94070.91
2023-04-02T01:09:39.389Z,94073.19
2023-04-02T01:12:05.785Z,94062.56
2023-04-02T01:14:32.197Z,94078.00
2023-04-02T01:16:58.583Z,94069.63
2023-04-02T01:19:24.982Z,94072.63
2023-04-02T01:21:51.476Z,94071.78
2023-04-02T01:24:17.878Z,94067.66
2023-04-02T01:26:44.251Z,94077.19
2023-04-02T01:29:10.692Z,94077.03
2023-04-02T01:31:37.225Z,94073.75
2023-04-02T01:34:03.709Z,94075.06
2023-04-02T01:36:30.084Z,94079.94
2023-04-02T01:38:56.461Z,94072.75
2023-04-02T01:41:22.851Z,94079.50
2023-04-02T01:43:49.259Z,94071.13
2023-04-02T01:46:15.717Z,94075.25
2023-04-02T01:48:42.114Z,94064.56
2023-04-02T01:51:08.525Z,94064.59
2023-04-02T01:53:34.932Z,94070.66
2023-04-02T01:56:01.320Z,94076.06
2023-04-02T01:58:27.764Z,94076.72
2023-04-02T02:00:54.180Z,94086.72
2023-04-02T02:03:20.633Z,94086.19
2023-04-02T02:05:47.100Z,94088.16
2023-04-02T02:08:13.473Z,94082.44
2023-04-02T02:10:39.874Z,94079.25
2023-04-02T02:13:06.297Z,94087.47
2023-04-02T02:15:32.782Z,94090.72
2023-04-02T02:17:59.402Z,94092.88
2023-04-02T02:20:25.928Z,94088.44
2023-04-02T02:22:52.347Z,94082.53
2023-04-02T02:25:18.723Z,94079.09
2023-04-02T02:27:45.162Z,94089.09
2023-04-02T02:30:11.593Z,94085.13
2023-04-02T02:32:37.998Z,94091.38
2023-04-02T02:35:04.440Z,94097.09
2023-04-02T02:37:30.858Z,94090.16
2023-04-02T02:39:57.237Z,94099.88
2023-04-02T02:42:23.684Z,94102.31
2023-04-02T02:44:50.080Z,94102.63
2023-04-02T02:47:16.478Z,94095.59
2023-04-02T02:49:42.875Z,94103.59
2023-04-02T02:52:09.280Z,94110.34
2023-04-02T02:54:35.698Z,94102.31
2023-04-02T02:57:02.166Z,94109.34
2023-04-02T02:59:28.579Z,94111.13
2023-04-02T03:01:54.972Z,94110.84
2023-04-02T03:04:21.406Z,94113.63
2023-04-02T03:06:47.858Z,94114.28
2023-04-02T03:09:14.248Z,94121.63
2023-04-02T03:11:40.645Z,94117.06
2023-04-02T03:14:07.044Z,94109.88
2023-04-02T03:16:33.434Z,94118.22
2023-04-02T03:18:59.833Z,94128.91
2023-04-02T03:21:26.275Z,94119.00
2023-04-02T03:23:52.707Z,94124.28
2023-04-02T03:26:19.110Z,94114.63
2023-04-02T03:28:45.530Z,94120.38
2023-04-02T03:31:11.968Z,94119.41
2023-04-02T03:33:38.349Z,94122.03
2023-04-02T03:36:04.775Z,94119.41
2023-04-02T03:38:31.208Z,94117.59
2023-04-02T03:40:57.871Z,94125.97
2023-04-02T03:43:24.309Z,94126.63
2023-04-02T03:45:50.703Z,94123.56
2023-04-02T03:48:17.095Z,94128.66
2023-04-02T03:50:43.493Z,94124.00
2023-04-02T03:53:09.878Z,94127.75
2023-04-02T03:55:36.542Z,94127.25
2023-04-02T03:58:03.297Z,94131.34
2023-04-02T04:00:29.730Z,94139.53
2023-04-02T04:02:56.184Z,94124.28
2023-04-02T04:05:22.672Z,94125.63
2023-04-02T04:07:49.127Z,94135.63
2023-04-02T04:10:15.525Z,94129.75
2023-04-02T04:12:41.924Z,94129.41
2023-04-02T04:15:08.295Z,94127.53
2023-04-02T04:17:34.780Z,94129.69
2023-04-02T04:20:01.225Z,94133.97
2023-04-02T04:22:27.616Z,94133.97
2023-04-02T04:24:54.061Z,94145.59
2023-04-02T04:27:20.492Z,94145.75
2023-04-02T04:29:46.916Z,94148.22
2023-04-02T04:32:13.414Z,94138.09
2023-04-02T04:34:39.876Z,94137.47
2023-04-02T04:37:06.270Z,94143.81
2023-04-02T04:39:32.651Z,94147.75
2023-04-02T04:41:59.068Z,94144.84
2023-04-02T04:44:25.467Z,94150.09
2023-04-02T04:46:51.881Z,94144.41
2023-04-02T04:49:18.278Z,94153.44
2023-04-02T04:51:44.651Z,94152.28
2023-04-02T04:54:11.046Z,94156.72
2023-04-02T04:56:37.430Z,94154.56
2023-04-02T04:59:03.789Z,94155.34
2023-04-02T05:01:30.187Z,94154.88
2023-04-02T05:03:56.601Z,94155.56
2023-04-02T05:06:22.989Z,94161.22
2023-04-02T05:08:49.377Z,94154.72
2023-04-02T05:11:15.783Z,94164.84
2023-04-02T05:13:42.189Z,94162.31
2023-04-02T05:16:08.608Z,94166.09
2023-04-02T05:18:35.089Z,94168.53
2023-04-02T05:21:01.490Z,94173.97
2023-04-02T05:23:27.889Z,94171.22
2023-04-02T05:25:54.347Z,94170.53
2023-04-02T05:28:20.743Z,94167.78
2023-04-02T05:30:47.166Z,94168.44
2023-04-02T05:33:13.586Z,94174.50
2023-04-02T05:35:39.974Z,94172.88
2023-04-02T05:38:06.344Z,94170.88
2023-04-02T05:40:32.746Z,94176.13
2023-04-02T05:42:59.162Z,94179.31
2023-04-02T05:45:25.563Z,94175.88
2023-04-02T05:47:52.102Z,94186.38
2023-04-02T05:50:18.635Z,94190.66
2023-04-02T05:52:45.053Z,94186.56
2023-04-02T05:55:11.456Z,94193.44
2023-04-02T05:57:44.534Z,94199.19
2023-04-02T06:00:13.413Z,94203.47
2023-04-02T06:02:39.927Z,94206.03
2023-04-02T06:05:06.427Z,94209.69
2023-04-02T06:07:32.804Z,94205.47
2023-04-02T06:09:59.219Z,94208.72
2023-04-02T06:12:25.632Z,94207.75
2023-04-02T06:14:52.022Z,94205.47
2023-04-02T06:17:18.407Z,94214.94
2023-04-02T06:19:44.924Z,94212.16
2023-04-02T06:22:11.313Z,94208.50
2023-04-02T06:24:37.743Z,94214.25
2023-04-02T06:27:04.173Z,94211.13
2023-04-02T06:29:30.567Z,94221.81
2023-04-02T06:31:57.004Z,94219.03
2023-04-02T06:34:23.411Z,94225.09
2023-04-02T06:36:49.798Z,94227.28
2023-04-02T06:39:16.222Z,94218.44
2023-04-02T06:41:42.626Z,94228.16
2023-04-02T06:44:09.042Z,94227.34
2023-04-02T06:46:35.586Z,94226.56
2023-04-02T06:49:02.057Z,94221.16
2023-04-02T06:51:28.464Z,94229.09
2023-04-02T06:53:54.847Z,94227.63
2023-04-02T06:56:21.281Z,94242.91
2023-04-02T06:58:47.671Z,94235.38
2023-04-02T07:01:14.104Z,94232.06
2023-04-02T07:03:40.526Z,94234.25
2023-04-02T07:06:06.935Z,94231.13
2023-04-02T07:08:33.378Z,94239.03
2023-04-02T07:10:59.773Z,94239.16
2023-04-02T07:13:26.182Z,94236.41
2023-04-02T07:15:52.651Z,94239.50
2023-04-02T07:18:19.328Z,94239.84
2023-04-02T07:20:45.742Z,94248.56
2023-04-02T07:23:12.151Z,94245.59
2023-04-02T07:25:38.519Z,94251.50
2023-04-02T07:28:04.924Z,94252.00
2023-04-02T07:30:31.330Z,94253.78
2023-04-02T07:32:57.758Z,94254.78
2023-04-02T07:35:24.150Z,94256.91
2023-04-02T07:37:50.548Z,94262.38
2023-04-02T07:40:16.969Z,94263.50
2023-04-02T07:42:43.369Z,94267.94
2023-04-02T07:45:09.782Z,94265.31
2023-04-02T07:47:36.189Z,94267.44
2023-04-02T07:50:02.649Z,94270.03
2023-04-02T07:52:29.022Z,94265.91
2023-04-02T07:54:55.432Z,94270.81
2023-04-02T07:57:21.907Z,94270.16
2023-04-02T07:59:48.346Z,94272.28
2023-04-02T08:02:14.774Z,94281.66
2023-04-02T08:04:41.221Z,94284.47
2023-04-02T08:07:07.646Z,94282.13
2023-04-02T08:09:34.040Z,94286.53
2023-04-02T08:12:00.442Z,94281.19
2023-04-02T08:14:26.883Z,94284.94
2023-04-02T08:16:53.300Z,94283.94
2023-04-02T08:19:19.733Z,94275.91
2023-04-02T08:21:46.143Z,94276.53
2023-04-02T08:24:12.549Z,94285.84
2023-04-02T08:26:38.954Z,94288.22
2023-04-02T08:29:05.363Z,94299.53
2023-04-02T08:31:31.774Z,94304.78
2023-04-02T08:33:58.201Z,94303.19
2023-04-02T08:36:24.645Z,94307.31
2023-04-02T08:38:51.064Z,94305.22
2023-04-02T08:41:17.460Z,94307.47
2023-04-02T08:43:43.844Z,94314.44
2023-04-02T08:46:10.302Z,94311.13
2023-04-02T08:48:36.766Z,94317.69
2023-04-02T08:51:03.180Z,94313.94
2023-04-02T08:53:29.562Z,94314.91
2023-04-02T08:55:55.963Z,94326.25
2023-04-02T08:58:22.381Z,94321.75
2023-04-02T09:00:48.779Z,94328.59
2023-04-02T09:03:15.184Z,94319.84
2023-04-02T09:05:41.612Z,94333.66
2023-04-02T09:08:08.034Z,94334.69
2023-04-02T09:10:34.472Z,94332.31
2023-04-02T09:13:00.873Z,94333.66
2023-04-02T09:15:27.296Z,94335.97
2023-04-02T09:17:54.628Z,94332.94
2023-04-02T09:20:21.807Z,94334.75
2023-04-02T09:22:48.229Z,94342.81
2023-04-02T09:25:14.649Z,94343.69
2023-04-02T09:27:41.042Z,94349.63
2023-04-02T09:30:07.482Z,94352.44
2023-04-02T09:32:33.937Z,94353.16
2023-04-02T09:35:00.342Z,94356.19
2023-04-02T09:37:26.781Z,94360.56
2023-04-02T09:39:53.189Z,94363.78
2023-04-02T09:42:19.577Z,94355.78
2023-04-02T09:44:45.953Z,94365.22
2023-04-02T09:47:12.353Z,94363.81
2023-04-02T09:49:38.729Z,94372.53
2023-04-02T09:52:05.131Z,94369.19
2023-04-02T09:54:31.549Z,94384.47
2023-04-02T09:56:57.979Z,94377.84
2023-04-02T09:59:24.369Z,94381.25
2023-04-02T10:01:50.773Z,94382.16
2023-04-02T10:04:17.178Z,94384.13
2023-04-02T10:06:43.590Z,94393.03
2023-04-02T10:09:09.995Z,94396.50
2023-04-02T10:11:45.837Z,94398.28
2023-04-02T10:14:13.215Z,94394.22
2023-04-02T10:16:39.754Z,94396.69
2023-04-02T10:19:06.177Z,94401.06
2023-04-02T10:21:32.564Z,94409.09
2023-04-02T10:23:58.958Z,94403.88
2023-04-02T10:26:25.359Z,94416.47
2023-04-02T10:28:51.786Z,94412.00
2023-04-02T10:31:18.243Z,94414.25
2023-04-02T10:33:44.652Z,94412.00
2023-04-02T10:36:11.123Z,94418.19
2023-04-02T10:38:37.528Z,94417.72
2023-04-02T10:41:03.924Z,94422.53
2023-04-02T10:43:30.337Z,94428.56
2023-04-02T10:45:56.735Z,94425.91
2023-04-02T10:48:23.159Z,94425.38
2023-04-02T10:50:49.552Z,94427.56
2023-04-02T10:53:15.968Z,94429.00
2023-04-02T10:55:42.344Z,94437.06
2023-04-02T10:58:08.730Z,94433.47
2023-04-02T11:00:35.135Z,94433.25
2023-04-02T11:03:01.824Z,94434.56
2023-04-02T11:05:28.386Z,94435.09
2023-04-02T11:07:54.984Z,94441.03
2023-04-02T11:10:21.388Z,94432.03
2023-04-02T11:12:47.875Z,94439.88
2023-04-02T11:15:14.247Z,94444.63
2023-04-02T11:17:40.654Z,94446.06
2023-04-02T11:20:07.059Z,94442.78
2023-04-02T11:22:33.465Z,94442.94
2023-04-02T11:24:59.864Z,94448.69
2023-04-02T11:27:26.291Z,94446.94
2023-04-02T11:29:52.681Z,94448.53
2023-04-02T11:32:19.059Z,94448.78
2023-04-02T11:34:46.292Z,94448.16
2023-04-02T11:37:13.410Z,94449.63
2023-04-02T11:39:39.781Z,94454.91
2023-04-02T11:42:06.233Z,94454.28
2023-04-02T11:44:32.690Z,94460.16
2023-04-02T11:46:59.123Z,94458.53
2023-04-02T11:49:25.600Z,94456.91
2023-04-02T11:51:59.227Z,94456.78
2023-04-02T11:54:31.937Z,94455.59
2023-04-02T11:56:58.376Z,94462.38
2023-04-02T11:59:24.786Z,94460.88
2023-04-02T12:01:51.291Z,94458.00
2023-04-02T12:04:17.723Z,94462.50
2023-04-02T12:06:44.109Z,94454.69
2023-04-02T12:09:10.492Z,94454.16
2023-04-02T12:11:36.925Z,94460.91
2023-04-02T12:14:03.344Z,94460.66
2023-04-02T12:16:29.745Z,94468.34
2023-04-02T12:18:56.153Z,94465.44
2023-04-02T12:21:22.555Z,94467.94
2023-04-02T12:23:48.960Z,94468.22
2023-04-02T12:26:15.346Z,94467.84
2023-04-02T12:28:41.750Z,94467.03
2023-04-02T12:31:08.159Z,94467.84
2023-04-02T12:33:34.584Z,94473.56
2023-04-02T12:36:01.031Z,94477.34
2023-04-02T12:38:27.423Z,94468.91
2023-04-02T12:40:53.819Z,94488.53
2023-04-02T12:43:20.216Z,94477.25
2023-04-02T12:45:46.606Z,94478.25
2023-04-02T12:48:13.181Z,94475.16
2023-04-02T12:50:39.596Z,94475.44
2023-04-02T12:53:06.009Z,94474.94
2023-04-02T12:55:32.427Z,94474.50
2023-04-02T12:57:58.833Z,94468.91
2023-04-02T13:00:25.223Z,94466.31
2023-04-02T13:02:51.629Z,94470.28
2023-04-02T13:05:18.086Z,94475.59
2023-04-02T13:07:44.509Z,94472.91
2023-04-02T13:10:10.906Z,94473.78
2023-04-02T13:12:37.293Z,94472.66
2023-04-02T13:15:03.683Z,94464.41
2023-04-02T13:17:30.105Z,94473.22
2023-04-02T13:19:56.518Z,94465.50
2023-04-02T13:22:22.908Z,94469.63
2023-04-02T13:24:49.305Z,94475.28
2023-04-02T13:27:16.027Z,94468.78
2023-04-02T13:29:43.208Z,94468.03
2023-04-02T13:32:09.598Z,94468.56
2023-04-02T13:34:36.007Z,94469.88
2023-04-02T13:37:02.399Z,94468.28
2023-04-02T13:39:28.800Z,94476.19
2023-04-02T13:41:55.204Z,94474.78
2023-04-02T13:44:21.601Z,94475.31
2023-04-02T13:46:48.013Z,94485.97
2023-04-02T13:49:14.429Z,94480.91
2023-04-02T13:51:40.811Z,94482.56
2023-04-02T13:54:07.224Z,94481.38
2023-04-02T13:56:33.619Z,94479.03
2023-04-02T13:59:00.038Z,94478.16
2023-04-02T14:01:26.549Z,94484.06
2023-04-02T14:03:52.993Z,94479.63
2023-04-02T14:06:19.353Z,94479.91
2023-04-02T14:08:45.748Z,94478.56
2023-04-02T14:11:12.151Z,94483.69
2023-04-02T14:13:39.738Z,94471.63
2023-04-02T14:16:06.162Z,94472.34
2023-04-02T14:18:32.576Z,94473.50
2023-04-02T14:20:58.975Z,94472.78
2023-04-02T14:23:25.403Z,94472.22
2023-04-02T14:25:51.819Z,94478.13
2023-04-02T14:28:18.278Z,94480.41
2023-04-02T14:30:44.711Z,94483.75
2023-04-02T14:33:11.109Z,94490.41
2023-04-02T14:35:37.518Z,94481.59
2023-04-02T14:38:04.016Z,94486.66
2023-04-02T14:40:30.397Z,94491.38
2023-04-02T14:42:56.774Z,94492.03
2023-04-02T14:45:23.191Z,94494.81
2023-04-02T14:47:49.568Z,94501.66
2023-04-02T14:50:15.981Z,94499.78
2023-04-02T14:52:42.382Z,94501.66
2023-04-02T14:55:08.745Z,94503.00
2023-04-02T14:57:35.210Z,94510.31
2023-04-02T15:00:01.839Z,94507.28
2023-04-02T15:02:28.309Z,94512.78
2023-04-02T15:04:54.681Z,94512.00
2023-04-02T15:07:21.078Z,94506.47
2023-04-02T15:09:47.484Z,94513.59
2023-04-02T15:12:13.851Z,94510.66
2023-04-02T15:14:40.227Z,94509.03
2023-04-02T15:17:06.638Z,94512.88
2023-04-02T15:19:33.006Z,94511.94
2023-04-02T15:22:02.150Z,94513.97
2023-04-02T15:24:32.432Z,94515.75
2023-04-02T15:26:58.850Z,94522.34
2023-04-02T15:29:29.439Z,94509.81
2023-04-02T15:31:56.214Z,94512.13
2023-04-02T15:34:22.629Z,94511.56
2023-04-02T15:36:49.036Z,94506.09
2023-04-02T15:39:15.451Z,94517.41
2023-04-02T15:41:41.865Z,94518.63
2023-04-02T15:44:08.289Z,94521.03
2023-04-02T15:46:34.681Z,94512.56
2023-04-02T15:49:01.121Z,94521.34
2023-04-02T15:51:27.524Z,94516.03
2023-04-02T15:53:53.920Z,94519.63
2023-04-02T15:56:20.497Z,94514.78
2023-04-02T15:58:46.870Z,94518.13
2023-04-02T16:01:13.338Z,94515.22
2023-04-02T16:03:39.798Z,94519.50
2023-04-02T16:06:06.205Z,94517.44
2023-04-02T16:08:32.599Z,94520.41
2023-04-02T16:10:58.995Z,94525.63
2023-04-02T16:13:25.430Z,94523.75
2023-04-02T16:15:51.830Z,94525.28
2023-04-02T16:18:18.255Z,94540.06
2023-04-02T16:20:44.697Z,94543.19
2023-04-02T16:23:11.084Z,94544.38
2023-04-02T16:25:37.492Z,94555.66
2023-04-02T16:28:03.970Z,94554.78
2023-04-02T16:30:30.356Z,94551.09
2023-04-02T16:32:56.839Z,94557.09
2023-04-02T16:35:41.674Z,94554.69
2023-04-02T16:38:09.601Z,94564.00
2023-04-02T16:40:36.270Z,94556.00
2023-04-02T16:43:02.997Z,94567.78
2023-04-02T16:45:29.371Z,94566.91
2023-04-02T16:47:55.794Z,94569.84
2023-04-02T16:50:22.197Z,94571.38
2023-04-02T16:52:48.588Z,94572.31
2023-04-02T16:55:15.053Z,94583.28
2023-04-02T16:57:41.457Z,94578.31
2023-04-02T17:00:07.880Z,94589.28
2023-04-02T17:02:34.381Z,94598.25
2023-04-02T17:05:00.910Z,94596.59
2023-04-02T17:07:27.289Z,94593.09
2023-04-02T17:09:53.753Z,94600.03
2023-04-02T17:12:20.222Z,94608.13
2023-04-02T17:14:46.617Z,94607.59
2023-04-02T17:17:13.014Z,94610.38
2023-04-02T17:19:39.387Z,94617.81
2023-04-02T17:22:05.807Z,94621.91
2023-04-02T17:24:32.184Z,94627.69
2023-04-02T17:26:58.570Z,94638.69
2023-04-02T17:29:24.955Z,94626.81
2023-04-02T17:31:51.344Z,94632.38
2023-04-02T17:34:17.781Z,94633.00
2023-04-02T17:36:44.200Z,94635.16
2023-04-02T17:39:10.609Z,94642.59
2023-04-02T17:41:37.066Z,94639.97
2023-04-02T17:44:03.490Z,94643.59
2023-04-02T17:46:29.905Z,94647.91
2023-04-02T17:48:56.294Z,94649.91
2023-04-02T17:51:23.499Z,94647.25
2023-04-02T17:53:51.138Z,94653.88
2023-04-02T17:56:17.594Z,94653.06
2023-04-02T17:58:44.046Z,94653.75
2023-04-02T18:01:10.512Z,94654.25
2023-04-02T18:03:36.934Z,94650.81
2023-04-02T18:06:03.353Z,94656.91
2023-04-02T18:08:29.806Z,94658.75
2023-04-02T18:10:56.217Z,94660.59
2023-04-02T18:13:22.672Z,94655.78
2023-04-02T18:15:49.057Z,94659.56
2023-04-02T18:18:15.453Z,94668.00
2023-04-02T18:20:41.895Z,94666.16
2023-04-02T18:23:08.302Z,94665.56
2023-04-02T18:25:34.693Z,94673.94
2023-04-02T18:28:01.065Z,94671.78
2023-04-02T18:30:27.479Z,94684.34
2023-04-02T18:32:53.932Z,94688.75
2023-04-02T18:35:20.432Z,94700.31
2023-04-02T18:37:46.855Z,94696.16
2023-04-02T18:40:13.233Z,94703.56
2023-04-02T18:42:39.618Z,94706.72
2023-04-02T18:45:05.996Z,94712.63
2023-04-02T18:47:32.440Z,94707.06
2023-04-02T18:49:58.871Z,94723.56
2023-04-02T18:52:25.281Z,94720.41
2023-04-02T18:54:51.705Z,94719.06
2023-04-02T18:57:18.190Z,94722.53
2023-04-02T18:59:44.659Z,94723.88
2023-04-02T19:02:11.039Z,94723.16
2023-04-02T19:04:37.501Z,94726.78
2023-04-02T19:07:03.891Z,94728.09
2023-04-02T19:09:30.291Z,94738.75
2023-04-02T19:11:56.827Z,94732.53
2023-04-02T19:14:23.215Z,94736.34
2023-04-02T19:16:49.642Z,94739.47
2023-04-02T19:19:16.057Z,94741.59
2023-04-02T19:21:42.508Z,94738.78
2023-04-02T19:24:08.905Z,94748.16
2023-04-02T19:26:35.295Z,94750.16
2023-04-02T19:29:01.721Z,94754.44
2023-04-02T19:31:28.107Z,94756.34
2023-04-02T19:33:54.536Z,94753.56
2023-04-02T19:36:20.999Z,94756.84
2023-04-02T19:38:47.442Z,94752.69
2023-04-02T19:41:13.830Z,94760.28
2023-04-02T19:43:40.228Z,94758.13
2023-04-02T19:46:06.611Z,94754.66
2023-04-02T19:48:33.018Z,94766.44
2023-04-02T19:50:59.414Z,94767.91
2023-04-02T19:53:25.806Z,94768.69
2023-04-02T19:55:52.236Z,94782.84
2023-04-02T19:58:19.856Z,94784.03
2023-04-02T20:00:46.613Z,94783.94
2023-04-02T20:03:13.051Z,94786.84
2023-04-02T20:05:39.456Z,94797.16
2023-04-02T20:08:05.883Z,94796.19
2023-04-02T20:10:32.299Z,94800.31
2023-04-02T20:12:58.686Z,94798.28
2023-04-02T20:15:25.199Z,94796.00
2023-04-02T20:17:51.630Z,94798.66
2023-04-02T20:20:18.031Z,94803.47
2023-04-02T20:22:44.409Z,94800.00
2023-04-02T20:25:10.797Z,94804.81
2023-04-02T20:27:37.191Z,94807.94
2023-04-02T20:30:03.577Z,94805.16
2023-04-02T20:32:30.121Z,94809.94
2023-04-02T20:34:56.580Z,94811.16
2023-04-02T20:37:22.949Z,94812.84
2023-04-02T20:39:49.364Z,94815.25
2023-04-02T20:42:15.765Z,94810.22
2023-04-02T20:44:42.179Z,94814.50
2023-04-02T20:47:08.601Z,94823.34
2023-04-02T20:49:35.006Z,94822.19
2023-04-02T20:52:01.422Z,94813.31
2023-04-02T20:54:27.836Z,94825.75
2023-04-02T20:56:54.283Z,94829.66
2023-04-02T20:59:20.755Z,94831.03
2023-04-02T21:01:47.192Z,94838.31
2023-04-02T21:04:13.585Z,94831.38
2023-04-02T21:06:40.028Z,94843.03
2023-04-02T21:09:08.317Z,94835.91
2023-04-02T21:11:35.076Z,94837.03
2023-04-02T21:14:01.466Z,94832.91
2023-04-02T21:16:27.938Z,94837.34
2023-04-02T21:18:54.396Z,94835.75
2023-04-02T21:21:20.785Z,94834.66
2023-04-02T21:23:47.205Z,94845.25
2023-04-02T21:26:13.622Z,94849.59
2023-04-02T21:28:40.022Z,94849.44
2023-04-02T21:31:06.437Z,94843.25
2023-04-02T21:33:32.870Z,94845.38
2023-04-02T21:35:59.309Z,94848.81
2023-04-02T21:38:25.711Z,94842.78
2023-04-02T21:40:52.151Z,94853.66
2023-04-02T21:43:18.555Z,94838.09
2023-04-02T21:45:44.946Z,94842.88
2023-04-02T21:48:11.348Z,94838.22
2023-04-02T21:50:37.817Z,94844.50
2023-04-02T21:53:04.282Z,94840.44
2023-04-02T21:55:30.698Z,94845.06
2023-04-02T21:57:57.181Z,94846.59
2023-04-02T22:00:23.560Z,94848.81
2023-04-02T22:02:50.053Z,94845.59
2023-04-02T22:05:16.523Z,94844.25
2023-04-02T22:07:42.919Z,94849.06
2023-04-02T22:10:09.305Z,94850.25
2023-04-02T22:12:35.694Z,94848.31
2023-04-02T22:15:02.112Z,94849.56
2023-04-02T22:17:28.527Z,94850.72
2023-04-02T22:19:54.921Z,94842.22
2023-04-02T22:22:21.312Z,94845.38
2023-04-02T22:24:47.747Z,94847.50
2023-04-02T22:27:14.133Z,94851.16
2023-04-02T22:29:40.512Z,94852.84
2023-04-02T22:32:06.940Z,94855.94
2023-04-02T22:34:33.339Z,94861.41
2023-04-02T22:36:59.738Z,94859.63
2023-04-02T22:39:26.183Z,94853.16
2023-04-02T22:41:52.574Z,94853.91
2023-04-02T22:44:18.986Z,94850.56
2023-04-02T22:46:45.373Z,94851.94
2023-04-02T22:49:11.854Z,94851.13
2023-04-02T22:51:38.295Z,94859.75
2023-04-02T22:54:04.696Z,94847.88
2023-04-02T22:56:31.095Z,94852.09
2023-04-02T22:58:57.475Z,94849.69
2023-04-02T23:01:23.904Z,94855.19
2023-04-02T23:03:50.350Z,94851.50
2023-04-02T23:06:16.773Z,94848.34
2023-04-02T23:08:43.170Z,94844.94
2023-04-02T23:11:09.567Z,94848.41
2023-04-02T23:13:35.996Z,94844.56
2023-04-02T23:16:02.504Z,94846.38
2023-04-02T23:18:28.986Z,94842.31
2023-04-02T23:20:55.352Z,94852.69
2023-04-02T23:23:21.725Z,94843.97
2023-04-02T23:25:48.136Z,94841.72
2023-04-02T23:28:14.548Z,94846.22
2023-04-02T23:30:40.985Z,94850.38
2023-04-02T23:33:07.387Z,94834.75
2023-04-02T23:35:33.916Z,94840.06
2023-04-02T23:38:00.349Z,94843.38
2023-04-02T23:40:26.717Z,94840.00
2023-04-02T23:42:53.085Z,94842.84
2023-04-02T23:45:19.513Z,94841.09
2023-04-02T23:47:45.953Z,94841.31
2023-04-02T23:50:12.361Z,94842.66
2023-04-02T23:52:38.744Z,94833.53
2023-04-02T23:55:05.166Z,94834.50
2023-04-02T23:57:31.616Z,94843.22
2023-04-02T23:59:58.059Z,94834.88
